sensor_id;sensor_type;location;lat;lon;timestamp;temperature;humidity
47090;DHT22;32840;52.516;13.294;2023-03-21T00:02:04;11.30;99.90
47090;DHT22;32840;52.516;13.294;2023-03-21T00:04:49;11.30;99.90
47090;DHT22;32840;52.516;13.294;2023-03-21T00:07:34;11.30;99.90
47090;DHT22;32840;52.516;13.294;2023-03-21T00:10:20;11.20;99.90
47090;DHT22;32840;52.516;13.294;2023-03-21T00:13:06;11.20;99.90
47090;DHT22;32840;52.516;13.294;2023-03-21T00:15:51;11.20;99.90
47090;DHT22;32840;52.516;13.294;2023-03-21T00:18:38;11.20;99.90
47090;DHT22;32840;52.516;13.294;2023-03-21T00:21:28;11.20;99.90
47090;DHT22;32840;52.516;13.294;2023-03-21T00:24:16;11.20;99.90
47090;DHT22;32840;52.516;13.294;2023-03-21T00:27:06;11.10;99.90
47090;DHT22;32840;52.516;13.294;2023-03-21T00:29:51;11.20;99.90
47090;DHT22;32840;52.516;13.294;2023-03-21T00:32:35;11.10;99.90
47090;DHT22;32840;52.516;13.294;2023-03-21T00:35:20;11.10;99.90
47090;DHT22;32840;52.516;13.294;2023-03-21T00:38:05;11.10;99.90
47090;DHT22;32840;52.516;13.294;2023-03-21T00:40:50;11.00;99.90
47090;DHT22;32840;52.516;13.294;2023-03-21T00:43:35;11.10;99.90
47090;DHT22;32840;52.516;13.294;2023-03-21T00:46:22;11.10;99.90
47090;DHT22;32840;52.516;13.294;2023-03-21T00:49:06;11.10;99.90
47090;DHT22;32840;52.516;13.294;2023-03-21T00:51:51;11.00;99.90
47090;DHT22;32840;52.516;13.294;2023-03-21T00:54:37;11.00;99.90
47090;DHT22;32840;52.516;13.294;2023-03-21T00:57:21;10.90;99.90
47090;DHT22;32840;52.516;13.294;2023-03-21T01:00:08;10.90;99.90
47090;DHT22;32840;52.516;13.294;2023-03-21T01:02:54;10.90;99.90
47090;DHT22;32840;52.516;13.294;2023-03-21T01:05:44;10.90;99.90
47090;DHT22;32840;52.516;13.294;2023-03-21T01:08:48;10.90;99.90
47090;DHT22;32840;52.516;13.294;2023-03-21T01:11:36;10.90;99.90
47090;DHT22;32840;52.516;13.294;2023-03-21T01:14:23;10.90;99.90
47090;DHT22;32840;52.516;13.294;2023-03-21T01:17:08;10.90;99.90
47090;DHT22;32840;52.516;13.294;2023-03-21T01:19:55;10.90;99.90
47090;DHT22;32840;52.516;13.294;2023-03-21T01:22:40;10.90;99.90
47090;DHT22;32840;52.516;13.294;2023-03-21T01:25:25;10.80;99.90
47090;DHT22;32840;52.516;13.294;2023-03-21T01:28:10;10.90;99.90
47090;DHT22;32840;52.516;13.294;2023-03-21T01:30:55;10.80;99.90
47090;DHT22;32840;52.516;13.294;2023-03-21T01:33:42;10.80;99.90
47090;DHT22;32840;52.516;13.294;2023-03-21T01:36:29;10.80;99.90
47090;DHT22;32840;52.516;13.294;2023-03-21T01:39:14;10.80;99.90
47090;DHT22;32840;52.516;13.294;2023-03-21T01:41:59;10.80;99.90
47090;DHT22;32840;52.516;13.294;2023-03-21T01:47:44;10.80;99.90
47090;DHT22;32840;52.516;13.294;2023-03-21T01:50:29;10.80;99.90
47090;DHT22;32840;52.516;13.294;2023-03-21T01:53:14;10.80;99.90
47090;DHT22;32840;52.516;13.294;2023-03-21T01:56:03;10.70;99.90
47090;DHT22;32840;52.516;13.294;2023-03-21T01:58:53;10.70;99.90
47090;DHT22;32840;52.516;13.294;2023-03-21T02:01:39;10.70;99.90
47090;DHT22;32840;52.516;13.294;2023-03-21T02:04:25;10.70;99.90
47090;DHT22;32840;52.516;13.294;2023-03-21T02:07:18;10.70;99.90
47090;DHT22;32840;52.516;13.294;2023-03-21T02:10:11;10.70;99.90
47090;DHT22;32840;52.516;13.294;2023-03-21T02:12:58;10.70;99.90
47090;DHT22;32840;52.516;13.294;2023-03-21T02:15:59;10.60;99.90
47090;DHT22;32840;52.516;13.294;2023-03-21T02:18:51;10.60;99.90
47090;DHT22;32840;52.516;13.294;2023-03-21T02:28:35;10.60;99.90
47090;DHT22;32840;52.516;13.294;2023-03-21T02:31:55;10.60;99.90
47090;DHT22;32840;52.516;13.294;2023-03-21T02:44:25;10.60;99.90
47090;DHT22;32840;52.516;13.294;2023-03-21T02:50:04;10.50;99.90
47090;DHT22;32840;52.516;13.294;2023-03-21T02:52:51;10.40;99.90
47090;DHT22;32840;52.516;13.294;2023-03-21T02:55:38;10.50;99.90
47090;DHT22;32840;52.516;13.294;2023-03-21T02:58:27;10.40;99.90
47090;DHT22;32840;52.516;13.294;2023-03-21T03:01:13;10.40;99.90
47090;DHT22;32840;52.516;13.294;2023-03-21T03:03:58;10.30;99.90
47090;DHT22;32840;52.516;13.294;2023-03-21T03:07:16;10.30;99.90
47090;DHT22;32840;52.516;13.294;2023-03-21T03:19:09;10.30;99.90
47090;DHT22;32840;52.516;13.294;2023-03-21T03:21:58;10.30;99.90
47090;DHT22;32840;52.516;13.294;2023-03-21T03:24:45;10.30;99.90
47090;DHT22;32840;52.516;13.294;2023-03-21T03:27:35;10.30;99.90
47090;DHT22;32840;52.516;13.294;2023-03-21T03:30:24;10.20;99.90
47090;DHT22;32840;52.516;13.294;2023-03-21T03:33:12;10.20;99.90
47090;DHT22;32840;52.516;13.294;2023-03-21T03:36:03;10.20;99.90
47090;DHT22;32840;52.516;13.294;2023-03-21T03:38:48;10.10;99.90
47090;DHT22;32840;52.516;13.294;2023-03-21T03:41:40;10.10;99.90
47090;DHT22;32840;52.516;13.294;2023-03-21T03:44:25;10.20;99.90
47090;DHT22;32840;52.516;13.294;2023-03-21T03:47:19;10.30;99.90
47090;DHT22;32840;52.516;13.294;2023-03-21T03:53:05;10.20;99.90
47090;DHT22;32840;52.516;13.294;2023-03-21T03:55:53;10.10;99.90
47090;DHT22;32840;52.516;13.294;2023-03-21T03:58:38;10.20;99.90
47090;DHT22;32840;52.516;13.294;2023-03-21T04:01:23;10.20;99.90
47090;DHT22;32840;52.516;13.294;2023-03-21T04:04:11;10.30;99.90
47090;DHT22;32840;52.516;13.294;2023-03-21T04:07:00;10.20;99.90
47090;DHT22;32840;52.516;13.294;2023-03-21T04:09:48;10.10;99.90
47090;DHT22;32840;52.516;13.294;2023-03-21T04:12:33;10.20;99.90
47090;DHT22;32840;52.516;13.294;2023-03-21T04:15:18;10.20;99.90
47090;DHT22;32840;52.516;13.294;2023-03-21T04:18:03;10.20;99.90
47090;DHT22;32840;52.516;13.294;2023-03-21T04:20:49;10.10;99.90
47090;DHT22;32840;52.516;13.294;2023-03-21T04:23:34;10.10;99.90
47090;DHT22;32840;52.516;13.294;2023-03-21T04:26:23;10.20;99.90
47090;DHT22;32840;52.516;13.294;2023-03-21T04:29:08;10.30;99.90
47090;DHT22;32840;52.516;13.294;2023-03-21T04:31:54;10.20;99.90
47090;DHT22;32840;52.516;13.294;2023-03-21T04:34:39;10.20;99.90
47090;DHT22;32840;52.516;13.294;2023-03-21T04:37:27;10.10;99.90
47090;DHT22;32840;52.516;13.294;2023-03-21T04:40:12;10.00;99.90
47090;DHT22;32840;52.516;13.294;2023-03-21T04:43:01;10.10;99.90
47090;DHT22;32840;52.516;13.294;2023-03-21T04:45:47;10.20;99.90
47090;DHT22;32840;52.516;13.294;2023-03-21T04:48:32;10.30;99.90
47090;DHT22;32840;52.516;13.294;2023-03-21T04:51:16;10.20;99.90
47090;DHT22;32840;52.516;13.294;2023-03-21T04:54:02;10.20;99.90
47090;DHT22;32840;52.516;13.294;2023-03-21T04:56:47;10.20;99.90
47090;DHT22;32840;52.516;13.294;2023-03-21T04:59:32;10.20;99.90
47090;DHT22;32840;52.516;13.294;2023-03-21T05:02:19;10.20;99.90
47090;DHT22;32840;52.516;13.294;2023-03-21T05:05:04;10.10;99.90
47090;DHT22;32840;52.516;13.294;2023-03-21T05:07:53;10.00;99.90
47090;DHT22;32840;52.516;13.294;2023-03-21T05:10:38;9.90;99.90
47090;DHT22;32840;52.516;13.294;2023-03-21T05:13:23;9.90;99.90
47090;DHT22;32840;52.516;13.294;2023-03-21T05:16:08;10.00;99.90
47090;DHT22;32840;52.516;13.294;2023-03-21T05:18:57;10.00;99.90
47090;DHT22;32840;52.516;13.294;2023-03-21T05:21:42;10.00;99.90
47090;DHT22;32840;52.516;13.294;2023-03-21T05:24:30;9.90;99.90
47090;DHT22;32840;52.516;13.294;2023-03-21T05:27:18;9.90;99.90
47090;DHT22;32840;52.516;13.294;2023-03-21T05:30:19;9.90;99.90
47090;DHT22;32840;52.516;13.294;2023-03-21T05:33:04;9.90;99.90
47090;DHT22;32840;52.516;13.294;2023-03-21T05:35:50;10.00;99.90
47090;DHT22;32840;52.516;13.294;2023-03-21T05:38:35;10.00;99.90
47090;DHT22;32840;52.516;13.294;2023-03-21T05:41:23;10.00;99.90
47090;DHT22;32840;52.516;13.294;2023-03-21T05:44:07;9.90;99.90
47090;DHT22;32840;52.516;13.294;2023-03-21T05:46:52;9.90;99.90
47090;DHT22;32840;52.516;13.294;2023-03-21T05:49:41;9.90;99.90
47090;DHT22;32840;52.516;13.294;2023-03-21T05:52:25;9.80;99.90
47090;DHT22;32840;52.516;13.294;2023-03-21T05:55:10;10.10;99.90
47090;DHT22;32840;52.516;13.294;2023-03-21T05:57:55;10.00;99.90
47090;DHT22;32840;52.516;13.294;2023-03-21T06:00:43;10.10;99.90
47090;DHT22;32840;52.516;13.294;2023-03-21T06:03:28;10.20;99.90
47090;DHT22;32840;52.516;13.294;2023-03-21T06:06:14;10.20;99.90
47090;DHT22;32840;52.516;13.294;2023-03-21T06:08:59;10.20;99.90
47090;DHT22;32840;52.516;13.294;2023-03-21T06:11:46;10.20;99.90
47090;DHT22;32840;52.516;13.294;2023-03-21T06:14:33;10.10;99.90
47090;DHT22;32840;52.516;13.294;2023-03-21T06:17:18;10.10;99.90
47090;DHT22;32840;52.516;13.294;2023-03-21T06:20:05;10.00;99.90
47090;DHT22;32840;52.516;13.294;2023-03-21T06:22:50;10.20;99.90
47090;DHT22;32840;52.516;13.294;2023-03-21T06:25:35;10.20;99.90
47090;DHT22;32840;52.516;13.294;2023-03-21T06:28:21;10.10;99.90
47090;DHT22;32840;52.516;13.294;2023-03-21T06:31:05;10.10;99.90
47090;DHT22;32840;52.516;13.294;2023-03-21T06:33:52;10.20;99.90
47090;DHT22;32840;52.516;13.294;2023-03-21T06:36:38;10.20;99.90
47090;DHT22;32840;52.516;13.294;2023-03-21T06:39:22;10.20;99.90
47090;DHT22;32840;52.516;13.294;2023-03-21T06:42:10;10.20;99.90
47090;DHT22;32840;52.516;13.294;2023-03-21T06:44:55;10.10;99.90
47090;DHT22;32840;52.516;13.294;2023-03-21T06:47:40;10.20;99.90
47090;DHT22;32840;52.516;13.294;2023-03-21T06:50:25;10.20;99.90
47090;DHT22;32840;52.516;13.294;2023-03-21T06:53:10;10.30;99.90
47090;DHT22;32840;52.516;13.294;2023-03-21T06:55:55;10.30;99.90
47090;DHT22;32840;52.516;13.294;2023-03-21T06:58:40;10.30;99.90
47090;DHT22;32840;52.516;13.294;2023-03-21T07:01:25;10.30;99.90
47090;DHT22;32840;52.516;13.294;2023-03-21T07:04:12;10.30;99.90
47090;DHT22;32840;52.516;13.294;2023-03-21T07:06:56;10.30;99.90
47090;DHT22;32840;52.516;13.294;2023-03-21T07:09:41;10.20;99.90
47090;DHT22;32840;52.516;13.294;2023-03-21T07:12:32;10.30;99.90
47090;DHT22;32840;52.516;13.294;2023-03-21T07:15:26;10.30;99.90
47090;DHT22;32840;52.516;13.294;2023-03-21T07:18:11;10.30;99.90
47090;DHT22;32840;52.516;13.294;2023-03-21T07:20:56;10.30;99.90
47090;DHT22;32840;52.516;13.294;2023-03-21T07:23:42;10.30;99.90
47090;DHT22;32840;52.516;13.294;2023-03-21T07:26:27;10.30;99.90
47090;DHT22;32840;52.516;13.294;2023-03-21T07:29:12;10.40;99.90
47090;DHT22;32840;52.516;13.294;2023-03-21T07:31:58;10.40;99.90
47090;DHT22;32840;52.516;13.294;2023-03-21T07:34:42;10.40;99.90
47090;DHT22;32840;52.516;13.294;2023-03-21T07:37:32;10.40;99.90
47090;DHT22;32840;52.516;13.294;2023-03-21T07:40:17;10.50;99.90
47090;DHT22;32840;52.516;13.294;2023-03-21T07:43:02;10.60;99.90
47090;DHT22;32840;52.516;13.294;2023-03-21T07:45:48;10.60;99.90
47090;DHT22;32840;52.516;13.294;2023-03-21T07:48:33;10.70;99.90
47090;DHT22;32840;52.516;13.294;2023-03-21T07:51:19;10.60;99.90
47090;DHT22;32840;52.516;13.294;2023-03-21T07:54:04;10.60;99.90
47090;DHT22;32840;52.516;13.294;2023-03-21T07:56:49;10.70;99.90
47090;DHT22;32840;52.516;13.294;2023-03-21T07:59:35;10.70;99.90
47090;DHT22;32840;52.516;13.294;2023-03-21T08:02:20;10.70;99.90
47090;DHT22;32840;52.516;13.294;2023-03-21T08:05:05;10.70;99.90
47090;DHT22;32840;52.516;13.294;2023-03-21T08:07:50;10.80;99.90
47090;DHT22;32840;52.516;13.294;2023-03-21T08:10:35;10.80;99.90
47090;DHT22;32840;52.516;13.294;2023-03-21T08:13:19;10.80;99.90
47090;DHT22;32840;52.516;13.294;2023-03-21T08:16:06;10.80;99.90
47090;DHT22;32840;52.516;13.294;2023-03-21T08:18:51;10.80;99.90
47090;DHT22;32840;52.516;13.294;2023-03-21T08:21:36;10.80;99.90
47090;DHT22;32840;52.516;13.294;2023-03-21T08:24:22;10.80;99.90
47090;DHT22;32840;52.516;13.294;2023-03-21T08:27:08;10.80;99.90
47090;DHT22;32840;52.516;13.294;2023-03-21T08:29:53;10.80;99.90
47090;DHT22;32840;52.516;13.294;2023-03-21T08:32:38;10.80;99.90
47090;DHT22;32840;52.516;13.294;2023-03-21T08:35:23;10.90;99.90
47090;DHT22;32840;52.516;13.294;2023-03-21T08:38:08;11.00;99.90
47090;DHT22;32840;52.516;13.294;2023-03-21T08:40:53;11.10;99.90
47090;DHT22;32840;52.516;13.294;2023-03-21T08:43:38;11.10;99.90
47090;DHT22;32840;52.516;13.294;2023-03-21T08:46:24;11.10;99.90
47090;DHT22;32840;52.516;13.294;2023-03-21T08:49:09;11.10;99.90
47090;DHT22;32840;52.516;13.294;2023-03-21T08:51:56;11.10;99.90
47090;DHT22;32840;52.516;13.294;2023-03-21T08:54:40;10.90;99.90
47090;DHT22;32840;52.516;13.294;2023-03-21T08:57:26;11.00;99.90
47090;DHT22;32840;52.516;13.294;2023-03-21T09:00:14;11.10;99.90
47090;DHT22;32840;52.516;13.294;2023-03-21T09:03:00;11.20;99.90
47090;DHT22;32840;52.516;13.294;2023-03-21T09:05:48;11.10;99.90
47090;DHT22;32840;52.516;13.294;2023-03-21T09:08:34;11.10;99.90
47090;DHT22;32840;52.516;13.294;2023-03-21T09:11:21;11.20;99.90
47090;DHT22;32840;52.516;13.294;2023-03-21T09:14:06;11.30;99.90
47090;DHT22;32840;52.516;13.294;2023-03-21T09:16:51;11.40;99.90
47090;DHT22;32840;52.516;13.294;2023-03-21T09:19:36;11.30;99.90
47090;DHT22;32840;52.516;13.294;2023-03-21T09:22:22;11.30;99.90
47090;DHT22;32840;52.516;13.294;2023-03-21T09:25:07;11.30;99.90
47090;DHT22;32840;52.516;13.294;2023-03-21T09:27:55;11.40;99.90
47090;DHT22;32840;52.516;13.294;2023-03-21T09:30:41;11.30;99.90
47090;DHT22;32840;52.516;13.294;2023-03-21T09:33:27;11.30;99.90
47090;DHT22;32840;52.516;13.294;2023-03-21T09:36:13;11.30;99.90
47090;DHT22;32840;52.516;13.294;2023-03-21T09:38:58;11.30;99.90
47090;DHT22;32840;52.516;13.294;2023-03-21T09:45:20;11.40;99.90
47090;DHT22;32840;52.516;13.294;2023-03-21T09:48:16;11.40;99.90
47090;DHT22;32840;52.516;13.294;2023-03-21T09:51:10;11.30;99.90
47090;DHT22;32840;52.516;13.294;2023-03-21T09:54:02;11.30;99.90
47090;DHT22;32840;52.516;13.294;2023-03-21T09:56:54;11.30;99.90
47090;DHT22;32840;52.516;13.294;2023-03-21T09:59:41;11.40;99.90
47090;DHT22;32840;52.516;13.294;2023-03-21T10:02:44;11.50;99.90
47090;DHT22;32840;52.516;13.294;2023-03-21T10:05:33;11.50;99.90
47090;DHT22;32840;52.516;13.294;2023-03-21T10:08:35;11.60;99.90
47090;DHT22;32840;52.516;13.294;2023-03-21T10:11:23;11.60;99.90
47090;DHT22;32840;52.516;13.294;2023-03-21T10:14:20;11.60;99.90
47090;DHT22;32840;52.516;13.294;2023-03-21T10:20:43;11.80;99.90
47090;DHT22;32840;52.516;13.294;2023-03-21T10:23:28;11.90;99.90
47090;DHT22;32840;52.516;13.294;2023-03-21T10:26:14;11.90;99.90
47090;DHT22;32840;52.516;13.294;2023-03-21T10:29:01;12.00;99.90
47090;DHT22;32840;52.516;13.294;2023-03-21T10:31:46;12.10;99.90
47090;DHT22;32840;52.516;13.294;2023-03-21T10:34:32;12.20;99.90
47090;DHT22;32840;52.516;13.294;2023-03-21T10:37:19;12.20;99.90
47090;DHT22;32840;52.516;13.294;2023-03-21T10:40:06;12.40;99.90
47090;DHT22;32840;52.516;13.294;2023-03-21T10:43:14;12.40;99.90
47090;DHT22;32840;52.516;13.294;2023-03-21T10:46:06;12.40;99.90
47090;DHT22;32840;52.516;13.294;2023-03-21T10:48:52;12.40;99.90
47090;DHT22;32840;52.516;13.294;2023-03-21T10:51:38;12.30;99.90
47090;DHT22;32840;52.516;13.294;2023-03-21T10:54:28;12.40;99.90
47090;DHT22;32840;52.516;13.294;2023-03-21T10:57:22;12.40;99.90
47090;DHT22;32840;52.516;13.294;2023-03-21T11:00:17;12.50;99.90
47090;DHT22;32840;52.516;13.294;2023-03-21T11:03:18;12.50;99.90
47090;DHT22;32840;52.516;13.294;2023-03-21T11:06:29;12.50;99.90
47090;DHT22;32840;52.516;13.294;2023-03-21T11:09:20;12.50;99.90
47090;DHT22;32840;52.516;13.294;2023-03-21T11:12:12;12.50;99.90
47090;DHT22;32840;52.516;13.294;2023-03-21T11:14:58;12.50;99.90
47090;DHT22;32840;52.516;13.294;2023-03-21T11:17:58;12.60;99.90
47090;DHT22;32840;52.516;13.294;2023-03-21T11:20:55;12.70;99.90
47090;DHT22;32840;52.516;13.294;2023-03-21T11:23:45;12.70;99.90
47090;DHT22;32840;52.516;13.294;2023-03-21T11:26:39;12.80;99.90
47090;DHT22;32840;52.516;13.294;2023-03-21T11:29:48;12.80;99.90
47090;DHT22;32840;52.516;13.294;2023-03-21T11:32:36;12.70;99.90
47090;DHT22;32840;52.516;13.294;2023-03-21T11:36:05;12.70;99.90
47090;DHT22;32840;52.516;13.294;2023-03-21T11:41:58;12.90;99.90
47090;DHT22;32840;52.516;13.294;2023-03-21T11:44:43;13.00;99.90
47090;DHT22;32840;52.516;13.294;2023-03-21T11:47:29;13.20;99.90
47090;DHT22;32840;52.516;13.294;2023-03-21T11:53:39;13.30;99.90
47090;DHT22;32840;52.516;13.294;2023-03-21T11:56:43;13.40;99.90
47090;DHT22;32840;52.516;13.294;2023-03-21T12:00:02;13.40;99.90
47090;DHT22;32840;52.516;13.294;2023-03-21T12:06:15;13.50;99.90
47090;DHT22;32840;52.516;13.294;2023-03-21T12:09:02;13.50;99.90
47090;DHT22;32840;52.516;13.294;2023-03-21T12:12:18;13.40;99.90
47090;DHT22;32840;52.516;13.294;2023-03-21T12:15:19;13.40;99.90
47090;DHT22;32840;52.516;13.294;2023-03-21T12:18:28;13.40;99.90
47090;DHT22;32840;52.516;13.294;2023-03-21T12:21:25;13.60;99.90
47090;DHT22;32840;52.516;13.294;2023-03-21T12:24:30;13.60;99.90
47090;DHT22;32840;52.516;13.294;2023-03-21T12:30:24;13.70;99.90
47090;DHT22;32840;52.516;13.294;2023-03-21T12:33:44;13.80;99.90
47090;DHT22;32840;52.516;13.294;2023-03-21T12:39:39;13.90;99.90
47090;DHT22;32840;52.516;13.294;2023-03-21T12:42:51;13.90;99.90
47090;DHT22;32840;52.516;13.294;2023-03-21T12:45:41;13.80;99.90
47090;DHT22;32840;52.516;13.294;2023-03-21T12:48:55;13.80;99.90
47090;DHT22;32840;52.516;13.294;2023-03-21T12:51:47;13.80;99.90
47090;DHT22;32840;52.516;13.294;2023-03-21T12:54:51;13.80;99.90
47090;DHT22;32840;52.516;13.294;2023-03-21T12:57:44;13.80;99.90
47090;DHT22;32840;52.516;13.294;2023-03-21T13:00:43;13.80;99.90
47090;DHT22;32840;52.516;13.294;2023-03-21T13:03:41;13.80;99.90
47090;DHT22;32840;52.516;13.294;2023-03-21T13:06:37;13.90;99.90
47090;DHT22;32840;52.516;13.294;2023-03-21T13:09:40;13.90;99.90
47090;DHT22;32840;52.516;13.294;2023-03-21T13:12:47;13.90;99.90
47090;DHT22;32840;52.516;13.294;2023-03-21T13:19:20;13.80;99.90
47090;DHT22;32840;52.516;13.294;2023-03-21T13:22:28;13.80;99.90
47090;DHT22;32840;52.516;13.294;2023-03-21T13:25:22;13.70;99.90
47090;DHT22;32840;52.516;13.294;2023-03-21T13:31:29;13.80;99.90
47090;DHT22;32840;52.516;13.294;2023-03-21T13:34:13;13.80;99.90
47090;DHT22;32840;52.516;13.294;2023-03-21T13:37:00;13.80;99.90
47090;DHT22;32840;52.516;13.294;2023-03-21T13:39:48;13.90;99.90
47090;DHT22;32840;52.516;13.294;2023-03-21T13:42:33;13.80;99.90
47090;DHT22;32840;52.516;13.294;2023-03-21T13:45:32;13.80;99.90
47090;DHT22;32840;52.516;13.294;2023-03-21T13:48:40;13.80;99.90
47090;DHT22;32840;52.516;13.294;2023-03-21T13:54:28;13.80;99.90
47090;DHT22;32840;52.516;13.294;2023-03-21T13:57:40;13.80;99.90
47090;DHT22;32840;52.516;13.294;2023-03-21T14:00:29;13.80;99.90
47090;DHT22;32840;52.516;13.294;2023-03-21T14:03:15;13.70;99.90
47090;DHT22;32840;52.516;13.294;2023-03-21T14:06:05;13.70;99.90
47090;DHT22;32840;52.516;13.294;2023-03-21T14:08:52;13.70;99.90
47090;DHT22;32840;52.516;13.294;2023-03-21T14:11:36;13.80;99.90
47090;DHT22;32840;52.516;13.294;2023-03-21T14:14:26;13.80;99.90
47090;DHT22;32840;52.516;13.294;2023-03-21T14:17:30;13.80;99.90
47090;DHT22;32840;52.516;13.294;2023-03-21T14:23:05;13.70;99.90
47090;DHT22;32840;52.516;13.294;2023-03-21T14:25:51;13.80;99.90
47090;DHT22;32840;52.516;13.294;2023-03-21T14:28:41;13.80;99.90
47090;DHT22;32840;52.516;13.294;2023-03-21T14:31:31;13.90;99.90
47090;DHT22;32840;52.516;13.294;2023-03-21T14:34:16;14.00;99.90
47090;DHT22;32840;52.516;13.294;2023-03-21T14:37:06;13.90;99.90
47090;DHT22;32840;52.516;13.294;2023-03-21T14:39:56;14.00;99.90
47090;DHT22;32840;52.516;13.294;2023-03-21T14:42:44;14.00;99.90
47090;DHT22;32840;52.516;13.294;2023-03-21T14:45:29;14.00;99.90
47090;DHT22;32840;52.516;13.294;2023-03-21T14:48:17;14.00;99.90
47090;DHT22;32840;52.516;13.294;2023-03-21T14:51:09;14.00;99.90
47090;DHT22;32840;52.516;13.294;2023-03-21T14:53:56;14.00;99.90
47090;DHT22;32840;52.516;13.294;2023-03-21T14:56:46;13.90;99.90
47090;DHT22;32840;52.516;13.294;2023-03-21T14:59:35;13.90;99.90
47090;DHT22;32840;52.516;13.294;2023-03-21T15:02:31;13.80;99.90
47090;DHT22;32840;52.516;13.294;2023-03-21T15:05:53;13.80;99.90
47090;DHT22;32840;52.516;13.294;2023-03-21T15:08:30;13.80;99.90
47090;DHT22;32840;52.516;13.294;2023-03-21T15:11:15;13.70;99.90
47090;DHT22;32840;52.516;13.294;2023-03-21T15:14:02;13.70;99.90
47090;DHT22;32840;52.516;13.294;2023-03-21T15:16:48;13.80;99.90
47090;DHT22;32840;52.516;13.294;2023-03-21T15:19:36;13.80;99.90
47090;DHT22;32840;52.516;13.294;2023-03-21T15:22:35;13.80;99.90
47090;DHT22;32840;52.516;13.294;2023-03-21T15:25:25;13.80;99.90
47090;DHT22;32840;52.516;13.294;2023-03-21T15:28:12;13.80;99.90
47090;DHT22;32840;52.516;13.294;2023-03-21T15:30:58;13.80;99.90
47090;DHT22;32840;52.516;13.294;2023-03-21T15:33:53;13.80;99.90
47090;DHT22;32840;52.516;13.294;2023-03-21T15:36:44;13.90;99.90
47090;DHT22;32840;52.516;13.294;2023-03-21T15:39:31;13.90;99.90
47090;DHT22;32840;52.516;13.294;2023-03-21T15:45:25;13.80;99.90
47090;DHT22;32840;52.516;13.294;2023-03-21T15:48:12;13.90;99.90
47090;DHT22;32840;52.516;13.294;2023-03-21T15:51:02;13.80;99.90
47090;DHT22;32840;52.516;13.294;2023-03-21T15:53:48;13.80;99.90
47090;DHT22;32840;52.516;13.294;2023-03-21T15:56:35;13.70;99.90
47090;DHT22;32840;52.516;13.294;2023-03-21T15:59:26;13.70;99.90
47090;DHT22;32840;52.516;13.294;2023-03-21T16:02:20;13.80;99.90
47090;DHT22;32840;52.516;13.294;2023-03-21T16:05:29;13.80;99.90
47090;DHT22;32840;52.516;13.294;2023-03-21T16:08:25;13.70;99.90
47090;DHT22;32840;52.516;13.294;2023-03-21T16:11:24;13.70;99.90
47090;DHT22;32840;52.516;13.294;2023-03-21T16:14:09;13.70;99.90
47090;DHT22;32840;52.516;13.294;2023-03-21T16:16:55;13.60;99.90
47090;DHT22;32840;52.516;13.294;2023-03-21T16:19:42;13.70;99.90
47090;DHT22;32840;52.516;13.294;2023-03-21T16:22:29;13.70;99.90
47090;DHT22;32840;52.516;13.294;2023-03-21T16:25:19;13.70;99.90
47090;DHT22;32840;52.516;13.294;2023-03-21T16:28:15;13.70;99.90
47090;DHT22;32840;52.516;13.294;2023-03-21T16:31:00;13.60;99.90
47090;DHT22;32840;52.516;13.294;2023-03-21T16:33:46;13.70;99.90
47090;DHT22;32840;52.516;13.294;2023-03-21T16:36:36;13.70;99.90
47090;DHT22;32840;52.516;13.294;2023-03-21T16:39:25;13.60;99.90
47090;DHT22;32840;52.516;13.294;2023-03-21T16:42:10;13.70;99.90
47090;DHT22;32840;52.516;13.294;2023-03-21T16:44:57;13.60;99.90
47090;DHT22;32840;52.516;13.294;2023-03-21T16:47:44;13.60;99.90
47090;DHT22;32840;52.516;13.294;2023-03-21T16:50:39;13.60;99.90
47090;DHT22;32840;52.516;13.294;2023-03-21T16:53:24;13.60;99.90
47090;DHT22;32840;52.516;13.294;2023-03-21T16:56:22;13.60;99.90
47090;DHT22;32840;52.516;13.294;2023-03-21T16:59:11;13.60;99.90
47090;DHT22;32840;52.516;13.294;2023-03-21T17:01:58;13.60;99.90
47090;DHT22;32840;52.516;13.294;2023-03-21T17:04:43;13.60;99.90
47090;DHT22;32840;52.516;13.294;2023-03-21T17:07:28;13.60;99.90
47090;DHT22;32840;52.516;13.294;2023-03-21T17:10:18;13.60;99.90
47090;DHT22;32840;52.516;13.294;2023-03-21T17:13:03;13.60;99.90
47090;DHT22;32840;52.516;13.294;2023-03-21T17:15:50;13.60;99.90
47090;DHT22;32840;52.516;13.294;2023-03-21T17:18:35;13.60;99.90
47090;DHT22;32840;52.516;13.294;2023-03-21T17:21:22;13.60;99.90
47090;DHT22;32840;52.516;13.294;2023-03-21T17:24:08;13.70;99.90
47090;DHT22;32840;52.516;13.294;2023-03-21T17:26:59;13.60;99.90
47090;DHT22;32840;52.516;13.294;2023-03-21T17:29:47;13.60;99.90
47090;DHT22;32840;52.516;13.294;2023-03-21T17:32:35;13.60;99.90
47090;DHT22;32840;52.516;13.294;2023-03-21T17:35:22;13.60;99.90
47090;DHT22;32840;52.516;13.294;2023-03-21T17:38:12;13.60;99.90
47090;DHT22;32840;52.516;13.294;2023-03-21T17:40:58;13.50;99.90
47090;DHT22;32840;52.516;13.294;2023-03-21T17:43:45;13.50;99.90
47090;DHT22;32840;52.516;13.294;2023-03-21T17:46:34;13.50;99.90
47090;DHT22;32840;52.516;13.294;2023-03-21T17:49:21;13.50;99.90
47090;DHT22;32840;52.516;13.294;2023-03-21T17:52:07;13.50;99.90
47090;DHT22;32840;52.516;13.294;2023-03-21T17:54:52;13.50;99.90
47090;DHT22;32840;52.516;13.294;2023-03-21T17:57:37;13.50;99.90
47090;DHT22;32840;52.516;13.294;2023-03-21T18:00:25;13.50;99.90
47090;DHT22;32840;52.516;13.294;2023-03-21T18:03:12;13.50;99.90
47090;DHT22;32840;52.516;13.294;2023-03-21T18:05:57;13.50;99.90
47090;DHT22;32840;52.516;13.294;2023-03-21T18:08:43;13.50;99.90
47090;DHT22;32840;52.516;13.294;2023-03-21T18:11:28;13.50;99.90
47090;DHT22;32840;52.516;13.294;2023-03-21T18:14:14;13.50;99.90
47090;DHT22;32840;52.516;13.294;2023-03-21T18:17:02;13.50;99.90
47090;DHT22;32840;52.516;13.294;2023-03-21T18:19:47;13.50;99.90
47090;DHT22;32840;52.516;13.294;2023-03-21T18:22:32;13.40;99.90
47090;DHT22;32840;52.516;13.294;2023-03-21T18:25:17;13.40;99.90
47090;DHT22;32840;52.516;13.294;2023-03-21T18:28:01;13.50;99.90
47090;DHT22;32840;52.516;13.294;2023-03-21T18:30:48;13.50;99.90
47090;DHT22;32840;52.516;13.294;2023-03-21T18:33:36;13.40;99.90
47090;DHT22;32840;52.516;13.294;2023-03-21T18:36:21;13.50;99.90
47090;DHT22;32840;52.516;13.294;2023-03-21T18:39:06;13.50;99.90
47090;DHT22;32840;52.516;13.294;2023-03-21T18:41:56;13.50;99.90
47090;DHT22;32840;52.516;13.294;2023-03-21T18:44:44;13.50;99.90
47090;DHT22;32840;52.516;13.294;2023-03-21T18:47:31;13.50;99.90